Esch-sur-Alzette, Luxembourg
Current Conditions -  °F | °C
As of 9:20 AM on Monday 24 Nov 2014 (Local Time) from ELLX Reporting Station
Broken Clouds Broken Clouds  
Wind Chill: 44°   Ceiling: 1800
Heat Index: 48°   Visibility: 6mi
Dew Point: 45°   Wind: 10mph
Humidity: 87%   Direction: 10°N
Pressure: 30.18"   Gusts: NA
Location:  49.5°N, 5.98°E
Report Text: ELLX 240820Z 01009KT 9999 FEW012 BKN018 09/07 Q1022 NOSIG
Loading
Personal Weather Stations






























Interactive Weather Map New forecast layout! Learn more

10-Day Weather Forecast

Advertisements
Track Severe Weather on mobile